sensor_id;sensor_type;location;lat;lon;timestamp;pressure;altitude;pressure_sealevel;temperature;humidity
77364;BME280;66428;47.322;9.432;2022-12-29T00:00:18;92448.16;;;2.74;60.63
77364;BME280;66428;47.322;9.432;2022-12-29T00:02:45;92461.16;;;2.91;59.34
77364;BME280;66428;47.322;9.432;2022-12-29T00:05:14;92453.94;;;2.97;58.77
77364;BME280;66428;47.322;9.432;2022-12-29T00:07:50;92456.84;;;3.08;56.83
77364;BME280;66428;47.322;9.432;2022-12-29T00:10:17;92450.44;;;2.91;59.90
77364;BME280;66428;47.322;9.432;2022-12-29T00:12:46;92450.81;;;2.98;58.17
77364;BME280;66428;47.322;9.432;2022-12-29T00:15:42;92445.06;;;2.91;58.26
77364;BME280;66428;47.322;9.432;2022-12-29T00:18:12;92442.34;;;3.00;56.98
77364;BME280;66428;47.322;9.432;2022-12-29T00:20:45;92446.22;;;2.99;58.59
77364;BME280;66428;47.322;9.432;2022-12-29T00:23:32;92445.38;;;2.93;59.34
77364;BME280;66428;47.322;9.432;2022-12-29T00:26:20;92434.09;;;2.89;58.80
77364;BME280;66428;47.322;9.432;2022-12-29T00:29:10;92423.84;;;2.87;58.02
77364;BME280;66428;47.322;9.432;2022-12-29T00:31:55;92421.25;;;2.78;60.36
77364;BME280;66428;47.322;9.432;2022-12-29T00:34:41;92422.72;;;2.79;59.10
77364;BME280;66428;47.322;9.432;2022-12-29T00:37:31;92429.22;;;2.87;58.98
77364;BME280;66428;47.322;9.432;2022-12-29T00:40:19;92418.16;;;2.94;58.05
77364;BME280;66428;47.322;9.432;2022-12-29T00:43:07;92421.63;;;2.86;59.29
77364;BME280;66428;47.322;9.432;2022-12-29T00:45:52;92408.41;;;2.82;58.23
77364;BME280;66428;47.322;9.432;2022-12-29T00:48:19;92416.28;;;2.86;58.95
77364;BME280;66428;47.322;9.432;2022-12-29T00:51:08;92413.03;;;2.82;57.69
77364;BME280;66428;47.322;9.432;2022-12-29T00:53:37;92422.81;;;2.85;58.69
77364;BME280;66428;47.322;9.432;2022-12-29T00:56:04;92414.84;;;2.75;58.41
77364;BME280;66428;47.322;9.432;2022-12-29T00:58:33;92420.31;;;2.81;58.62
77364;BME280;66428;47.322;9.432;2022-12-29T01:01:07;92427.72;;;2.86;57.72
77364;BME280;66428;47.322;9.432;2022-12-29T01:03:40;92427.34;;;2.79;58.39
77364;BME280;66428;47.322;9.432;2022-12-29T01:06:08;92433.44;;;2.79;58.56
77364;BME280;66428;47.322;9.432;2022-12-29T01:08:38;92427.50;;;2.75;59.36
77364;BME280;66428;47.322;9.432;2022-12-29T01:11:11;92424.56;;;2.73;60.68
77364;BME280;66428;47.322;9.432;2022-12-29T01:13:40;92427.09;;;2.67;59.68
77364;BME280;66428;47.322;9.432;2022-12-29T01:16:11;92430.66;;;2.73;58.94
77364;BME280;66428;47.322;9.432;2022-12-29T01:18:40;92426.25;;;2.61;60.75
77364;BME280;66428;47.322;9.432;2022-12-29T01:21:07;92427.97;;;2.73;59.30
77364;BME280;66428;47.322;9.432;2022-12-29T01:23:38;92426.19;;;2.70;58.73
77364;BME280;66428;47.322;9.432;2022-12-29T01:26:09;92429.34;;;2.69;60.67
77364;BME280;66428;47.322;9.432;2022-12-29T01:28:39;92425.31;;;2.73;58.51
77364;BME280;66428;47.322;9.432;2022-12-29T01:31:10;92412.06;;;2.70;57.69
77364;BME280;66428;47.322;9.432;2022-12-29T01:33:39;92427.78;;;2.77;58.77
77364;BME280;66428;47.322;9.432;2022-12-29T01:36:10;92426.84;;;2.65;59.44
77364;BME280;66428;47.322;9.432;2022-12-29T01:38:40;92424.44;;;2.67;58.65
77364;BME280;66428;47.322;9.432;2022-12-29T01:41:13;92421.97;;;2.79;58.30
77364;BME280;66428;47.322;9.432;2022-12-29T01:51:35;92413.69;;;2.91;58.02
77364;BME280;66428;47.322;9.432;2022-12-29T01:54:10;92420.50;;;2.78;59.31
77364;BME280;66428;47.322;9.432;2022-12-29T01:56:39;92410.69;;;2.74;58.46
77364;BME280;66428;47.322;9.432;2022-12-29T01:59:13;92421.34;;;2.84;58.64
77364;BME280;66428;47.322;9.432;2022-12-29T02:01:47;92412.56;;;2.83;59.36
77364;BME280;66428;47.322;9.432;2022-12-29T02:04:14;92426.41;;;2.82;59.56
77364;BME280;66428;47.322;9.432;2022-12-29T02:06:47;92428.63;;;2.83;59.29
77364;BME280;66428;47.322;9.432;2022-12-29T02:09:18;92423.19;;;2.78;60.62
77364;BME280;66428;47.322;9.432;2022-12-29T02:11:46;92425.31;;;2.73;62.01
77364;BME280;66428;47.322;9.432;2022-12-29T02:14:19;92429.78;;;2.67;62.23
77364;BME280;66428;47.322;9.432;2022-12-29T02:25:50;92435.38;;;2.55;62.40
77364;BME280;66428;47.322;9.432;2022-12-29T02:28:50;92417.72;;;2.48;61.97
77364;BME280;66428;47.322;9.432;2022-12-29T02:39:21;92415.97;;;2.45;63.67
77364;BME280;66428;47.322;9.432;2022-12-29T02:42:02;92423.72;;;2.43;63.51
77364;BME280;66428;47.322;9.432;2022-12-29T02:44:52;92418.06;;;2.41;63.66
77364;BME280;66428;47.322;9.432;2022-12-29T02:47:34;92428.88;;;2.47;64.06
77364;BME280;66428;47.322;9.432;2022-12-29T02:50:19;92422.97;;;2.43;63.51
77364;BME280;66428;47.322;9.432;2022-12-29T02:52:53;92420.59;;;2.45;63.82
77364;BME280;66428;47.322;9.432;2022-12-29T02:55:22;92431.34;;;2.59;61.46
77364;BME280;66428;47.322;9.432;2022-12-29T03:11:08;92387.13;;;2.88;60.24
77364;BME280;66428;47.322;9.432;2022-12-29T03:14:02;92388.41;;;3.07;57.97
77364;BME280;66428;47.322;9.432;2022-12-29T03:16:57;92368.63;;;2.90;60.16
77364;BME280;66428;47.322;9.432;2022-12-29T03:19:31;92370.31;;;3.02;58.89
77364;BME280;66428;47.322;9.432;2022-12-29T03:22:04;92374.31;;;3.21;57.05
77364;BME280;66428;47.322;9.432;2022-12-29T03:25:10;92382.25;;;3.30;58.11
77364;BME280;66428;47.322;9.432;2022-12-29T03:27:49;92384.09;;;3.24;59.36
77364;BME280;66428;47.322;9.432;2022-12-29T03:30:21;92391.19;;;3.27;59.56
77364;BME280;66428;47.322;9.432;2022-12-29T03:33:01;92387.69;;;3.21;60.18
77364;BME280;66428;47.322;9.432;2022-12-29T03:35:35;92384.72;;;3.19;59.51
77364;BME280;66428;47.322;9.432;2022-12-29T03:38:15;92376.41;;;3.17;59.95
77364;BME280;66428;47.322;9.432;2022-12-29T03:40:52;92389.72;;;3.26;59.98
77364;BME280;66428;47.322;9.432;2022-12-29T03:43:31;92385.31;;;3.23;59.81
77364;BME280;66428;47.322;9.432;2022-12-29T03:46:03;92383.53;;;3.20;61.64
77364;BME280;66428;47.322;9.432;2022-12-29T03:48:32;92379.66;;;3.21;61.84
77364;BME280;66428;47.322;9.432;2022-12-29T03:51:07;92391.03;;;3.16;61.46
77364;BME280;66428;47.322;9.432;2022-12-29T03:53:38;92373.66;;;3.11;62.44
77364;BME280;66428;47.322;9.432;2022-12-29T03:56:05;92379.56;;;3.16;62.48
77364;BME280;66428;47.322;9.432;2022-12-29T03:58:32;92376.53;;;3.23;62.42
77364;BME280;66428;47.322;9.432;2022-12-29T04:01:09;92377.88;;;3.18;61.42
77364;BME280;66428;47.322;9.432;2022-12-29T04:03:37;92383.63;;;3.26;62.05
77364;BME280;66428;47.322;9.432;2022-12-29T04:06:05;92372.38;;;3.22;62.36
77364;BME280;66428;47.322;9.432;2022-12-29T04:08:38;92366.63;;;3.14;62.89
77364;BME280;66428;47.322;9.432;2022-12-29T04:11:10;92360.72;;;3.10;62.48
77364;BME280;66428;47.322;9.432;2022-12-29T04:13:42;92364.69;;;3.29;60.79
77364;BME280;66428;47.322;9.432;2022-12-29T04:16:13;92372.53;;;3.33;63.08
77364;BME280;66428;47.322;9.432;2022-12-29T04:18:42;92371.63;;;3.21;64.49
77364;BME280;66428;47.322;9.432;2022-12-29T04:21:11;92368.66;;;3.19;64.30
77364;BME280;66428;47.322;9.432;2022-12-29T04:23:43;92362.47;;;3.13;62.58
77364;BME280;66428;47.322;9.432;2022-12-29T04:26:13;92374.59;;;3.23;63.55
77364;BME280;66428;47.322;9.432;2022-12-29T04:28:51;92379.00;;;3.26;62.59
77364;BME280;66428;47.322;9.432;2022-12-29T04:31:38;92356.38;;;3.27;60.45
77364;BME280;66428;47.322;9.432;2022-12-29T04:34:09;92365.69;;;3.46;58.69
77364;BME280;66428;47.322;9.432;2022-12-29T04:36:37;92368.56;;;3.58;59.55
77364;BME280;66428;47.322;9.432;2022-12-29T04:39:06;92371.50;;;3.60;59.47
77364;BME280;66428;47.322;9.432;2022-12-29T04:41:37;92374.81;;;3.54;60.09
77364;BME280;66428;47.322;9.432;2022-12-29T04:44:11;92377.25;;;3.52;63.13
77364;BME280;66428;47.322;9.432;2022-12-29T04:46:52;92369.81;;;3.62;60.23
77364;BME280;66428;47.322;9.432;2022-12-29T04:49:54;92361.63;;;3.66;60.31
77364;BME280;66428;47.322;9.432;2022-12-29T04:52:49;92355.13;;;4.07;53.24
77364;BME280;66428;47.322;9.432;2022-12-29T04:55:18;92350.19;;;4.61;48.53
77364;BME280;66428;47.322;9.432;2022-12-29T04:57:48;92355.56;;;5.13;46.73
77364;BME280;66428;47.322;9.432;2022-12-29T05:00:20;92349.84;;;4.99;48.20
77364;BME280;66428;47.322;9.432;2022-12-29T05:02:47;92345.22;;;5.26;45.41
77364;BME280;66428;47.322;9.432;2022-12-29T05:05:21;92343.72;;;5.25;47.19
77364;BME280;66428;47.322;9.432;2022-12-29T05:07:50;92341.69;;;5.14;48.47
77364;BME280;66428;47.322;9.432;2022-12-29T05:10:17;92336.94;;;5.29;46.16
77364;BME280;66428;47.322;9.432;2022-12-29T05:12:49;92319.88;;;5.69;43.17
77364;BME280;66428;47.322;9.432;2022-12-29T05:15:19;92315.16;;;5.90;42.75
77364;BME280;66428;47.322;9.432;2022-12-29T05:17:50;92335.06;;;6.09;41.84
77364;BME280;66428;47.322;9.432;2022-12-29T05:20:19;92336.56;;;6.10;43.35
77364;BME280;66428;47.322;9.432;2022-12-29T05:22:48;92317.78;;;6.27;41.41
77364;BME280;66428;47.322;9.432;2022-12-29T05:25:18;92316.06;;;6.24;42.36
77364;BME280;66428;47.322;9.432;2022-12-29T05:28:09;92303.00;;;6.06;44.01
77364;BME280;66428;47.322;9.432;2022-12-29T05:30:53;92314.75;;;6.03;42.87
77364;BME280;66428;47.322;9.432;2022-12-29T05:33:22;92305.50;;;6.15;42.55
77364;BME280;66428;47.322;9.432;2022-12-29T05:35:54;92289.81;;;6.13;41.79
77364;BME280;66428;47.322;9.432;2022-12-29T05:38:31;92311.44;;;6.24;43.00
77364;BME280;66428;47.322;9.432;2022-12-29T05:41:02;92310.50;;;6.33;41.39
77364;BME280;66428;47.322;9.432;2022-12-29T05:43:59;92293.09;;;6.34;41.43
77364;BME280;66428;47.322;9.432;2022-12-29T05:46:44;92301.72;;;6.49;41.24
77364;BME280;66428;47.322;9.432;2022-12-29T05:49:17;92311.25;;;6.45;41.87
77364;BME280;66428;47.322;9.432;2022-12-29T05:52:16;92300.97;;;6.43;41.61
77364;BME280;66428;47.322;9.432;2022-12-29T05:54:46;92294.16;;;6.48;40.38
77364;BME280;66428;47.322;9.432;2022-12-29T05:57:19;92296.09;;;6.47;43.41
77364;BME280;66428;47.322;9.432;2022-12-29T06:00:01;92307.09;;;6.49;41.08
77364;BME280;66428;47.322;9.432;2022-12-29T06:02:42;92307.38;;;6.57;43.90
77364;BME280;66428;47.322;9.432;2022-12-29T06:05:11;92311.75;;;6.43;43.58
77364;BME280;66428;47.322;9.432;2022-12-29T06:07:39;92305.59;;;6.37;42.50
77364;BME280;66428;47.322;9.432;2022-12-29T06:10:09;92302.69;;;6.46;41.04
77364;BME280;66428;47.322;9.432;2022-12-29T06:13:06;92302.25;;;6.64;40.03
77364;BME280;66428;47.322;9.432;2022-12-29T06:15:41;92302.25;;;6.64;40.26
77364;BME280;66428;47.322;9.432;2022-12-29T06:18:11;92303.47;;;6.63;40.29
77364;BME280;66428;47.322;9.432;2022-12-29T06:20:48;92296.41;;;6.66;41.14
77364;BME280;66428;47.322;9.432;2022-12-29T06:23:23;92305.84;;;6.39;42.95
77364;BME280;66428;47.322;9.432;2022-12-29T06:25:55;92294.06;;;6.31;42.41
77364;BME280;66428;47.322;9.432;2022-12-29T06:28:24;92297.25;;;6.35;42.12
77364;BME280;66428;47.322;9.432;2022-12-29T06:30:59;92309.84;;;6.07;47.54
77364;BME280;66428;47.322;9.432;2022-12-29T06:33:31;92305.22;;;5.70;50.37
77364;BME280;66428;47.322;9.432;2022-12-29T06:36:00;92307.56;;;5.57;50.71
77364;BME280;66428;47.322;9.432;2022-12-29T06:38:30;92307.50;;;5.46;54.49
77364;BME280;66428;47.322;9.432;2022-12-29T06:41:02;92306.66;;;5.34;54.99
77364;BME280;66428;47.322;9.432;2022-12-29T06:43:40;92309.09;;;5.32;51.18
77364;BME280;66428;47.322;9.432;2022-12-29T06:46:23;92320.97;;;5.20;54.42
77364;BME280;66428;47.322;9.432;2022-12-29T06:48:53;92328.41;;;4.79;56.30
77364;BME280;66428;47.322;9.432;2022-12-29T06:51:22;92332.00;;;4.76;58.15
77364;BME280;66428;47.322;9.432;2022-12-29T06:53:55;92340.63;;;4.80;54.79
77364;BME280;66428;47.322;9.432;2022-12-29T06:56:25;92338.28;;;4.67;54.12
77364;BME280;66428;47.322;9.432;2022-12-29T06:58:54;92356.59;;;4.69;56.55
77364;BME280;66428;47.322;9.432;2022-12-29T07:01:23;92354.06;;;4.60;57.28
77364;BME280;66428;47.322;9.432;2022-12-29T07:03:57;92356.81;;;4.65;58.38
77364;BME280;66428;47.322;9.432;2022-12-29T07:06:26;92362.19;;;4.65;56.18
77364;BME280;66428;47.322;9.432;2022-12-29T07:08:55;92374.59;;;4.63;54.96
77364;BME280;66428;47.322;9.432;2022-12-29T07:11:26;92382.91;;;4.65;55.14
77364;BME280;66428;47.322;9.432;2022-12-29T07:13:57;92381.91;;;4.62;56.22
77364;BME280;66428;47.322;9.432;2022-12-29T07:16:27;92390.91;;;4.59;56.51
77364;BME280;66428;47.322;9.432;2022-12-29T07:18:56;92389.63;;;4.55;57.30
77364;BME280;66428;47.322;9.432;2022-12-29T07:21:23;92399.16;;;4.56;58.45
77364;BME280;66428;47.322;9.432;2022-12-29T07:23:53;92402.78;;;4.53;58.00
77364;BME280;66428;47.322;9.432;2022-12-29T07:26:25;92402.78;;;4.53;57.70
77364;BME280;66428;47.322;9.432;2022-12-29T07:28:55;92405.94;;;4.51;58.22
77364;BME280;66428;47.322;9.432;2022-12-29T07:31:24;92403.19;;;4.46;59.26
77364;BME280;66428;47.322;9.432;2022-12-29T07:33:54;92413.66;;;4.44;59.93
77364;BME280;66428;47.322;9.432;2022-12-29T07:36:24;92419.69;;;4.39;59.46
77364;BME280;66428;47.322;9.432;2022-12-29T07:39:00;92422.38;;;4.39;60.68
77364;BME280;66428;47.322;9.432;2022-12-29T07:41:29;92425.81;;;4.39;61.41
77364;BME280;66428;47.322;9.432;2022-12-29T07:44:01;92432.75;;;4.31;61.89
77364;BME280;66428;47.322;9.432;2022-12-29T07:46:57;92428.78;;;4.26;63.16
77364;BME280;66428;47.322;9.432;2022-12-29T07:49:24;92434.88;;;4.27;63.28
77364;BME280;66428;47.322;9.432;2022-12-29T07:51:53;92440.47;;;4.23;62.14
77364;BME280;66428;47.322;9.432;2022-12-29T07:54:25;92438.25;;;4.22;62.51
77364;BME280;66428;47.322;9.432;2022-12-29T07:56:54;92443.78;;;4.18;61.63
77364;BME280;66428;47.322;9.432;2022-12-29T07:59:23;92445.72;;;4.18;61.70
77364;BME280;66428;47.322;9.432;2022-12-29T08:01:55;92452.84;;;4.21;62.59
77364;BME280;66428;47.322;9.432;2022-12-29T08:04:27;92441.84;;;4.19;62.20
77364;BME280;66428;47.322;9.432;2022-12-29T08:06:56;92448.69;;;4.20;62.40
77364;BME280;66428;47.322;9.432;2022-12-29T08:09:26;92451.44;;;4.25;61.41
77364;BME280;66428;47.322;9.432;2022-12-29T08:11:57;92456.81;;;4.25;62.07
77364;BME280;66428;47.322;9.432;2022-12-29T08:14:24;92452.84;;;4.21;63.41
77364;BME280;66428;47.322;9.432;2022-12-29T08:16:58;92456.00;;;4.19;63.68
77364;BME280;66428;47.322;9.432;2022-12-29T08:19:30;92456.94;;;4.16;62.47
77364;BME280;66428;47.322;9.432;2022-12-29T08:21:56;92465.81;;;4.22;62.55
77364;BME280;66428;47.322;9.432;2022-12-29T08:24:26;92467.47;;;4.20;62.51
77364;BME280;66428;47.322;9.432;2022-12-29T08:26:55;92465.25;;;4.18;61.76
77364;BME280;66428;47.322;9.432;2022-12-29T08:29:32;92477.91;;;4.18;61.75
77364;BME280;66428;47.322;9.432;2022-12-29T08:32:01;92469.41;;;4.19;62.53
77364;BME280;66428;47.322;9.432;2022-12-29T08:34:32;92480.59;;;4.18;63.19
77364;BME280;66428;47.322;9.432;2022-12-29T08:36:59;92474.69;;;4.14;63.55
77364;BME280;66428;47.322;9.432;2022-12-29T08:39:30;92489.66;;;4.20;63.54
77364;BME280;66428;47.322;9.432;2022-12-29T08:41:57;92472.09;;;4.19;63.28
77364;BME280;66428;47.322;9.432;2022-12-29T08:44:26;92469.69;;;4.21;64.71
77364;BME280;66428;47.322;9.432;2022-12-29T08:46:57;92459.50;;;4.25;65.93
77364;BME280;66428;47.322;9.432;2022-12-29T08:49:27;92454.69;;;4.29;65.74
77364;BME280;66428;47.322;9.432;2022-12-29T08:51:58;92448.50;;;4.23;64.10
77364;BME280;66428;47.322;9.432;2022-12-29T08:54:27;92455.22;;;4.33;64.70
77364;BME280;66428;47.322;9.432;2022-12-29T08:56:56;92445.03;;;4.38;63.79
77364;BME280;66428;47.322;9.432;2022-12-29T08:59:34;92459.75;;;4.42;63.68
77364;BME280;66428;47.322;9.432;2022-12-29T09:02:08;92451.00;;;4.47;64.36
77364;BME280;66428;47.322;9.432;2022-12-29T09:04:40;92448.31;;;4.47;64.47
77364;BME280;66428;47.322;9.432;2022-12-29T09:07:12;92455.00;;;4.52;64.90
77364;BME280;66428;47.322;9.432;2022-12-29T09:09:39;92447.06;;;4.63;62.03
77364;BME280;66428;47.322;9.432;2022-12-29T09:12:06;92444.72;;;4.70;60.48
77364;BME280;66428;47.322;9.432;2022-12-29T09:14:37;92438.63;;;4.70;61.61
77364;BME280;66428;47.322;9.432;2022-12-29T09:17:06;92440.91;;;4.77;61.36
77364;BME280;66428;47.322;9.432;2022-12-29T09:19:54;92450.03;;;4.85;62.22
77364;BME280;66428;47.322;9.432;2022-12-29T09:22:23;92433.00;;;4.88;62.96
77364;BME280;66428;47.322;9.432;2022-12-29T09:24:50;92444.94;;;5.07;60.32
77364;BME280;66428;47.322;9.432;2022-12-29T09:27:18;92443.31;;;5.16;62.00
77364;BME280;66428;47.322;9.432;2022-12-29T09:29:45;92454.56;;;5.40;58.78
77364;BME280;66428;47.322;9.432;2022-12-29T09:32:14;92436.53;;;5.46;60.57
77364;BME280;66428;47.322;9.432;2022-12-29T09:34:47;92431.81;;;5.41;61.17
77364;BME280;66428;47.322;9.432;2022-12-29T09:37:19;92432.69;;;5.53;59.45
77364;BME280;66428;47.322;9.432;2022-12-29T09:39:50;92425.13;;;5.57;58.40
77364;BME280;66428;47.322;9.432;2022-12-29T09:42:27;92422.28;;;5.66;59.21
77364;BME280;66428;47.322;9.432;2022-12-29T09:47:37;92413.47;;;5.65;59.57
77364;BME280;66428;47.322;9.432;2022-12-29T09:50:29;92415.03;;;5.77;61.57
77364;BME280;66428;47.322;9.432;2022-12-29T09:53:40;92379.06;;;6.06;59.71
77364;BME280;66428;47.322;9.432;2022-12-29T09:56:17;92420.47;;;6.57;56.26
77364;BME280;66428;47.322;9.432;2022-12-29T09:58:52;92403.69;;;6.79;56.50
77364;BME280;66428;47.322;9.432;2022-12-29T10:03:59;92408.22;;;7.15;55.60
77364;BME280;66428;47.322;9.432;2022-12-29T10:23:48;92397.47;;;8.60;54.51
77364;BME280;66428;47.322;9.432;2022-12-29T10:26:25;92404.78;;;8.82;52.56
77364;BME280;66428;47.322;9.432;2022-12-29T10:28:59;92406.16;;;9.11;51.16
77364;BME280;66428;47.322;9.432;2022-12-29T10:31:35;92391.66;;;9.55;48.55
77364;BME280;66428;47.322;9.432;2022-12-29T10:34:41;92391.41;;;9.94;48.52
77364;BME280;66428;47.322;9.432;2022-12-29T10:40:02;92391.13;;;10.76;41.46
77364;BME280;66428;47.322;9.432;2022-12-29T10:42:48;92387.94;;;10.96;47.05
77364;BME280;66428;47.322;9.432;2022-12-29T10:45:21;92384.63;;;11.09;42.42
77364;BME280;66428;47.322;9.432;2022-12-29T10:50:27;92374.06;;;11.43;39.19
77364;BME280;66428;47.322;9.432;2022-12-29T10:52:59;92378.06;;;11.73;40.60
77364;BME280;66428;47.322;9.432;2022-12-29T10:55:35;92378.41;;;12.02;40.98
77364;BME280;66428;47.322;9.432;2022-12-29T10:58:07;92370.84;;;12.27;41.94
77364;BME280;66428;47.322;9.432;2022-12-29T11:00:40;92369.72;;;12.48;38.65
77364;BME280;66428;47.322;9.432;2022-12-29T11:08:21;92361.56;;;12.35;37.39
77364;BME280;66428;47.322;9.432;2022-12-29T11:11:06;92361.47;;;12.54;38.17
77364;BME280;66428;47.322;9.432;2022-12-29T11:13:46;92365.22;;;12.38;39.20
77364;BME280;66428;47.322;9.432;2022-12-29T11:16:14;92364.66;;;12.26;40.71
77364;BME280;66428;47.322;9.432;2022-12-29T11:18:46;92354.53;;;12.27;39.06
77364;BME280;66428;47.322;9.432;2022-12-29T11:21:35;92361.19;;;12.12;39.79
77364;BME280;66428;47.322;9.432;2022-12-29T11:24:31;92353.47;;;12.17;38.47
77364;BME280;66428;47.322;9.432;2022-12-29T11:27:18;92350.63;;;12.09;39.32
77364;BME280;66428;47.322;9.432;2022-12-29T11:29:52;92336.88;;;12.33;38.12
77364;BME280;66428;47.322;9.432;2022-12-29T11:32:25;92345.34;;;12.43;37.84
77364;BME280;66428;47.322;9.432;2022-12-29T11:34:58;92318.78;;;12.36;39.90
77364;BME280;66428;47.322;9.432;2022-12-29T11:37:31;92325.16;;;12.25;39.29
77364;BME280;66428;47.322;9.432;2022-12-29T11:40:18;92316.25;;;12.25;38.62
77364;BME280;66428;47.322;9.432;2022-12-29T11:42:50;92327.56;;;12.16;38.44
77364;BME280;66428;47.322;9.432;2022-12-29T11:47:52;92314.38;;;12.06;37.43
77364;BME280;66428;47.322;9.432;2022-12-29T11:50:24;92305.34;;;11.98;39.13
77364;BME280;66428;47.322;9.432;2022-12-29T11:52:59;92310.16;;;11.92;40.60
77364;BME280;66428;47.322;9.432;2022-12-29T11:55:34;92316.41;;;11.87;39.01
77364;BME280;66428;47.322;9.432;2022-12-29T11:58:14;92320.53;;;11.75;40.03
77364;BME280;66428;47.322;9.432;2022-12-29T12:00:45;92316.09;;;11.59;40.09
77364;BME280;66428;47.322;9.432;2022-12-29T12:03:24;92311.03;;;11.50;39.37
77364;BME280;66428;47.322;9.432;2022-12-29T12:06:00;92312.66;;;11.40;40.30
77364;BME280;66428;47.322;9.432;2022-12-29T12:08:38;92308.66;;;11.27;42.08
77364;BME280;66428;47.322;9.432;2022-12-29T12:11:29;92309.22;;;11.20;42.99
77364;BME280;66428;47.322;9.432;2022-12-29T12:14:06;92293.97;;;11.17;42.62
77364;BME280;66428;47.322;9.432;2022-12-29T12:17:10;92288.84;;;11.14;42.85
77364;BME280;66428;47.322;9.432;2022-12-29T12:20:06;92295.25;;;11.16;42.19
77364;BME280;66428;47.322;9.432;2022-12-29T12:22:45;92287.09;;;11.16;42.09
77364;BME280;66428;47.322;9.432;2022-12-29T12:25:23;92288.13;;;11.13;39.72
77364;BME280;66428;47.322;9.432;2022-12-29T12:28:15;92274.41;;;11.06;41.03
77364;BME280;66428;47.322;9.432;2022-12-29T12:30:54;92274.00;;;11.02;39.88
77364;BME280;66428;47.322;9.432;2022-12-29T12:46:40;92284.91;;;10.59;43.03
77364;BME280;66428;47.322;9.432;2022-12-29T12:49:40;92262.81;;;10.49;39.93
77364;BME280;66428;47.322;9.432;2022-12-29T13:03:45;92255.53;;;10.38;44.11
77364;BME280;66428;47.322;9.432;2022-12-29T13:17:38;92256.28;;;10.14;43.24
77364;BME280;66428;47.322;9.432;2022-12-29T13:25:40;92255.50;;;9.95;39.28
77364;BME280;66428;47.322;9.432;2022-12-29T13:31:04;92258.25;;;9.90;44.07
77364;BME280;66428;47.322;9.432;2022-12-29T13:39:15;92262.94;;;9.59;46.77
77364;BME280;66428;47.322;9.432;2022-12-29T13:41:54;92256.13;;;9.53;47.28
77364;BME280;66428;47.322;9.432;2022-12-29T13:47:39;92266.75;;;9.45;48.25
77364;BME280;66428;47.322;9.432;2022-12-29T13:50:17;92257.72;;;9.37;51.11
77364;BME280;66428;47.322;9.432;2022-12-29T13:55:27;92266.16;;;9.28;50.39
77364;BME280;66428;47.322;9.432;2022-12-29T13:58:17;92274.28;;;9.28;50.59
77364;BME280;66428;47.322;9.432;2022-12-29T14:00:56;92277.00;;;9.22;52.44
77364;BME280;66428;47.322;9.432;2022-12-29T14:11:36;92258.41;;;9.13;50.59
77364;BME280;66428;47.322;9.432;2022-12-29T14:16:53;92268.53;;;9.07;51.03
77364;BME280;66428;47.322;9.432;2022-12-29T14:21:58;92263.66;;;8.94;54.07
77364;BME280;66428;47.322;9.432;2022-12-29T14:24:37;92273.28;;;8.90;54.24
77364;BME280;66428;47.322;9.432;2022-12-29T14:35:37;92282.97;;;8.74;55.91
77364;BME280;66428;47.322;9.432;2022-12-29T14:38:17;92274.63;;;8.67;55.85
77364;BME280;66428;47.322;9.432;2022-12-29T14:40:47;92275.88;;;8.66;58.19
77364;BME280;66428;47.322;9.432;2022-12-29T14:43:26;92277.63;;;8.63;60.37
77364;BME280;66428;47.322;9.432;2022-12-29T14:46:00;92278.84;;;8.62;58.70
77364;BME280;66428;47.322;9.432;2022-12-29T14:48:35;92269.06;;;8.53;58.62
77364;BME280;66428;47.322;9.432;2022-12-29T14:51:17;92265.66;;;8.47;60.99
77364;BME280;66428;47.322;9.432;2022-12-29T14:53:54;92277.66;;;8.52;63.37
77364;BME280;66428;47.322;9.432;2022-12-29T14:56:26;92279.91;;;8.42;58.66
77364;BME280;66428;47.322;9.432;2022-12-29T14:59:08;92275.25;;;8.43;57.17
77364;BME280;66428;47.322;9.432;2022-12-29T15:01:46;92275.28;;;8.32;58.37
77364;BME280;66428;47.322;9.432;2022-12-29T15:04:21;92279.91;;;8.37;59.16
77364;BME280;66428;47.322;9.432;2022-12-29T15:06:54;92281.88;;;8.36;63.05
77364;BME280;66428;47.322;9.432;2022-12-29T15:09:34;92271.84;;;8.31;60.74
77364;BME280;66428;47.322;9.432;2022-12-29T15:20:00;92310.91;;;8.13;59.11
77364;BME280;66428;47.322;9.432;2022-12-29T15:22:34;92313.13;;;8.04;60.05
77364;BME280;66428;47.322;9.432;2022-12-29T15:25:14;92306.28;;;7.97;60.67
77364;BME280;66428;47.322;9.432;2022-12-29T15:27:50;92305.28;;;7.95;61.57
77364;BME280;66428;47.322;9.432;2022-12-29T15:30:18;92299.94;;;7.78;62.00
77364;BME280;66428;47.322;9.432;2022-12-29T15:32:50;92316.84;;;7.78;64.31
77364;BME280;66428;47.322;9.432;2022-12-29T15:35:37;92319.78;;;7.86;63.37
77364;BME280;66428;47.322;9.432;2022-12-29T15:38:19;92318.81;;;7.78;63.23
77364;BME280;66428;47.322;9.432;2022-12-29T15:41:02;92328.63;;;7.70;62.65
77364;BME280;66428;47.322;9.432;2022-12-29T15:46:15;92331.81;;;7.63;63.04
77364;BME280;66428;47.322;9.432;2022-12-29T15:48:44;92328.63;;;7.53;63.13
77364;BME280;66428;47.322;9.432;2022-12-29T15:51:23;92328.38;;;7.45;62.93
77364;BME280;66428;47.322;9.432;2022-12-29T15:53:55;92333.03;;;7.45;61.65
77364;BME280;66428;47.322;9.432;2022-12-29T15:56:29;92316.59;;;7.37;61.67
77364;BME280;66428;47.322;9.432;2022-12-29T15:59:02;92345.03;;;7.38;61.72
77364;BME280;66428;47.322;9.432;2022-12-29T16:01:33;92329.34;;;7.31;62.25
77364;BME280;66428;47.322;9.432;2022-12-29T16:04:08;92332.03;;;7.37;62.78
77364;BME280;66428;47.322;9.432;2022-12-29T16:06:39;92342.34;;;7.44;63.54
77364;BME280;66428;47.322;9.432;2022-12-29T16:09:18;92346.25;;;7.37;62.37
77364;BME280;66428;47.322;9.432;2022-12-29T16:11:52;92344.78;;;7.31;62.60
77364;BME280;66428;47.322;9.432;2022-12-29T16:14:33;92346.25;;;7.26;63.02
77364;BME280;66428;47.322;9.432;2022-12-29T16:17:14;92345.28;;;7.29;63.85
77364;BME280;66428;47.322;9.432;2022-12-29T16:19:50;92348.72;;;7.24;63.39
77364;BME280;66428;47.322;9.432;2022-12-29T16:22:27;92347.22;;;7.29;64.00
77364;BME280;66428;47.322;9.432;2022-12-29T16:25:02;92347.97;;;7.18;63.80
77364;BME280;66428;47.322;9.432;2022-12-29T16:27:37;92353.84;;;7.11;65.35
77364;BME280;66428;47.322;9.432;2022-12-29T16:30:26;92357.72;;;6.99;65.26
77364;BME280;66428;47.322;9.432;2022-12-29T16:33:27;92353.03;;;6.88;65.63